KSTS

Charles M Schulz - Sonoma County Airport

Santa Rosa, California, USA
METAR KSTS 202353Z 18013KT 7SM FU CLR 21/12 A2984 RMK AO2 SLP099 T02110122 10267 20133 55005
Observed Flight Rules
Aug-20 @ 23:53 UTC (16 minutes ago) Visual Flight Rules
Wind Visibility Clouds Conditions
180° at 13 knots 7 miles
  • Clear skies
  • Smoke
Temperatures Readings
Current 21°C / 70°F
Dewpoint 12°C / 54°F
Humidity 57%
Altimeter 29.84" Hg
Pressure 1009.9 hPa
Elevation 39
METAR KSTS 202353Z 18013KT 7SM FU CLR 21/12 A2984 RMK AO2 SLP099 T02110122 10267 20133 55005
Observed Flight Rules
Aug-20 @ 23:53 UTC
(16 minutes ago)
VFR
Wind Visibility
180° at 13 knots 7 miles
Clouds
  • Clear skies
Conditions
  • Smoke
Temperature Dewpoint
21°C / 70°F 12°C / 54°F
Humidity Altimeter Pressure
57% 29.84" Hg 1009.9 hPa